createdAt,value
2019-02-12T00:04:28.701Z,2.18
2019-02-12T00:09:32.812Z,2.28
2019-02-12T00:14:36.896Z,2.09
2019-02-12T00:19:40.987Z,2.20
2019-02-12T00:24:45.061Z,2.30
2019-02-12T00:29:49.152Z,2.38
2019-02-12T00:34:53.191Z,2.33
2019-02-12T00:39:57.370Z,2.34
2019-02-12T00:45:01.479Z,2.45
2019-02-12T00:50:06.168Z,2.46
2019-02-12T00:55:10.300Z,2.25
2019-02-12T01:00:14.463Z,2.42
2019-02-12T01:05:18.492Z,2.33
2019-02-12T01:10:23.461Z,2.29
2019-02-12T01:15:27.787Z,2.10
2019-02-12T01:20:31.812Z,2.15
2019-02-12T01:25:35.900Z,2.04
2019-02-12T01:30:39.981Z,2.11
2019-02-12T01:35:44.140Z,2.07
2019-02-12T01:40:48.208Z,2.45
2019-02-12T01:45:52.273Z,2.64
2019-02-12T01:50:56.381Z,2.73
2019-02-12T01:56:00.393Z,2.83
2019-02-12T02:01:04.419Z,2.79
2019-02-12T02:06:08.786Z,2.84
2019-02-12T02:11:12.847Z,2.91
2019-02-12T02:16:16.925Z,2.88
2019-02-12T02:21:20.993Z,2.83
2019-02-12T02:26:25.364Z,2.81
2019-02-12T02:31:29.472Z,2.88
2019-02-12T02:36:33.568Z,2.86
2019-02-12T02:41:37.639Z,2.83
2019-02-12T02:46:41.963Z,2.75
2019-02-12T02:51:53.738Z,2.66
2019-02-12T02:56:52.141Z,2.69
2019-02-12T03:01:56.199Z,2.62
2019-02-12T03:07:00.246Z,2.67
2019-02-12T03:12:04.292Z,2.78
2019-02-12T03:17:08.360Z,2.73
2019-02-12T03:22:12.450Z,2.70
2019-02-12T03:27:16.815Z,2.56
2019-02-12T03:32:20.948Z,2.52
2019-02-12T03:37:25.008Z,2.68
2019-02-12T03:42:29.137Z,2.75
2019-02-12T03:47:33.133Z,2.74
2019-02-12T03:52:37.260Z,2.74
2019-02-12T03:57:41.376Z,2.74
2019-02-12T04:02:59.796Z,2.76
2019-02-12T04:08:04.275Z,2.77
2019-02-12T04:13:08.321Z,2.66
2019-02-12T04:18:12.698Z,2.61
2019-02-12T04:23:18.951Z,2.59
2019-02-12T04:28:23.100Z,2.53
2019-02-12T04:33:27.218Z,2.45
2019-02-12T04:38:31.298Z,2.49
2019-02-12T04:43:35.674Z,2.46
2019-02-12T04:48:39.901Z,2.44
2019-02-12T04:53:44.087Z,2.44
2019-02-12T04:58:48.106Z,2.44
2019-02-12T05:03:52.478Z,2.46
2019-02-12T05:09:19.443Z,2.37
2019-02-12T05:14:23.614Z,2.40
2019-02-12T05:19:27.811Z,2.43
2019-02-12T05:24:31.870Z,2.45
2019-02-12T05:29:36.176Z,2.47
2019-02-12T05:34:40.250Z,2.54
2019-02-12T05:39:44.301Z,2.43
2019-02-12T05:44:48.341Z,2.28
2019-02-12T05:49:52.614Z,2.22
2019-02-12T05:54:56.926Z,2.12
2019-02-12T06:00:01.250Z,2.19
2019-02-12T06:05:05.581Z,2.29
2019-02-12T06:10:10.345Z,2.37
2019-02-12T06:15:14.667Z,2.09
2019-02-12T06:20:18.768Z,1.98
2019-02-12T06:25:22.872Z,1.86
2019-02-12T06:30:26.984Z,1.94
2019-02-12T06:35:31.094Z,1.96
2019-02-12T06:40:35.158Z,2.02
2019-02-12T06:45:39.249Z,1.92
2019-02-12T06:50:43.317Z,2.15
2019-02-12T06:55:47.600Z,2.18
2019-02-12T07:00:51.802Z,2.03
2019-02-12T07:06:00.688Z,2.08
2019-02-12T07:11:17.384Z,2.28
2019-02-12T07:16:56.954Z,2.17
2019-02-12T07:22:46.288Z,2.31
2019-02-12T07:28:34.375Z,2.25
2019-02-12T07:34:21.270Z,2.27
2019-02-12T07:39:57.570Z,2.31
2019-02-12T07:45:27.678Z,2.10
2019-02-12T07:50:58.256Z,2.17
2019-02-12T07:56:22.250Z,2.08
2019-02-12T08:02:12.151Z,2.03
2019-02-12T08:07:55.919Z,2.36
2019-02-12T08:13:28.983Z,2.86
2019-02-12T08:19:05.529Z,3.02
2019-02-12T08:24:53.567Z,3.25
2019-02-12T08:30:29.944Z,3.42
2019-02-12T08:36:07.713Z,3.71
2019-02-12T08:41:37.680Z,3.90
2019-02-12T08:47:28.602Z,4.20
2019-02-12T08:53:12.396Z,3.94
2019-02-12T08:58:34.680Z,3.98
2019-02-12T09:04:15.989Z,4.03
2019-02-12T09:10:02.770Z,4.26
2019-02-12T09:15:39.305Z,4.23
2019-02-12T09:21:00.380Z,4.34
2019-02-12T09:26:35.955Z,4.36
2019-02-12T09:32:22.970Z,4.31
2019-02-12T09:38:10.569Z,4.24
2019-02-12T09:43:25.968Z,4.64
2019-02-12T09:49:16.916Z,4.79
2019-02-12T09:54:48.298Z,4.71
2019-02-12T10:00:29.629Z,4.64
2019-02-12T10:06:22.861Z,4.52
2019-02-12T10:12:07.018Z,4.45
2019-02-12T10:17:42.256Z,4.35
2019-02-12T10:23:00.076Z,4.38
2019-02-12T10:28:48.655Z,4.12
2019-02-12T10:33:46.117Z,4.21
2019-02-12T10:38:50.407Z,4.35
2019-02-12T10:43:54.418Z,4.60
2019-02-12T10:48:58.552Z,5.37
2019-02-12T10:54:02.915Z,6.77
2019-02-12T10:59:06.981Z,5.49
2019-02-12T11:04:11.074Z,5.23
2019-02-12T11:09:15.138Z,4.87
2019-02-12T11:14:19.250Z,4.72
2019-02-12T11:19:23.506Z,4.32
2019-02-12T11:24:35.248Z,6.34
2019-02-12T11:29:34.426Z,5.99
2019-02-12T11:34:38.563Z,6.21
2019-02-12T11:39:43.031Z,7.20
2019-02-12T11:44:47.102Z,7.77
2019-02-12T11:49:51.338Z,7.02
2019-02-12T11:54:56.588Z,5.99
2019-02-12T12:00:00.698Z,6.10
2019-02-12T12:05:05.086Z,4.91
2019-02-12T12:10:09.497Z,4.56
2019-02-12T12:15:13.657Z,4.39
2019-02-12T12:20:18.939Z,5.14
2019-02-12T12:25:23.294Z,6.10
2019-02-12T12:30:27.454Z,5.92
2019-02-12T12:35:32.017Z,6.55
2019-02-12T12:40:36.231Z,7.39
2019-02-12T12:45:40.651Z,7.19
2019-02-12T12:50:44.695Z,5.49
2019-02-12T12:55:49.253Z,5.34
2019-02-12T13:00:53.404Z,5.18
2019-02-12T13:05:57.712Z,5.42
2019-02-12T13:11:01.795Z,6.21
2019-02-12T13:16:06.193Z,6.32
2019-02-12T13:21:10.245Z,6.08
2019-02-12T13:26:14.399Z,5.68
2019-02-12T13:31:19.035Z,5.03
2019-02-12T13:36:23.086Z,5.12
2019-02-12T13:41:27.265Z,5.21
2019-02-12T13:46:31.324Z,5.20
2019-02-12T13:51:35.412Z,6.12
2019-02-12T13:56:39.643Z,6.45
2019-02-12T14:01:43.745Z,6.51
2019-02-12T14:06:47.798Z,6.26
2019-02-12T14:11:51.927Z,5.94
2019-02-12T14:16:56.035Z,5.38
2019-02-12T14:22:00.114Z,5.30
2019-02-12T14:27:04.247Z,5.72
2019-02-12T14:32:08.612Z,6.28
2019-02-12T14:37:12.818Z,6.37
2019-02-12T14:42:16.959Z,6.35
2019-02-12T14:47:24.447Z,6.42
2019-02-12T14:52:29.178Z,5.93
2019-02-12T14:57:33.550Z,5.94
2019-02-12T15:02:38.155Z,5.77
2019-02-12T15:07:42.538Z,5.71
2019-02-12T15:12:46.864Z,5.40
2019-02-12T15:17:51.486Z,5.11
2019-02-12T15:23:14.439Z,4.89
2019-02-12T15:28:18.501Z,4.87
2019-02-12T15:33:22.907Z,4.80
2019-02-12T15:38:27.241Z,4.66
2019-02-12T15:43:31.645Z,4.45
2019-02-12T15:48:35.950Z,4.17
2019-02-12T15:53:40.125Z,4.08
2019-02-12T15:58:44.356Z,3.83
2019-02-12T16:03:48.588Z,3.53
2019-02-12T16:08:53.971Z,3.62
2019-02-12T16:13:58.790Z,3.47
2019-02-12T16:19:03.078Z,3.36
2019-02-12T16:24:07.347Z,3.30
2019-02-12T16:29:12.113Z,3.06
2019-02-12T16:34:16.213Z,2.90
2019-02-12T16:39:20.648Z,2.58
2019-02-12T16:44:26.754Z,2.22
2019-02-12T16:49:34.486Z,1.87
2019-02-12T16:54:38.640Z,1.74
2019-02-12T16:59:43.170Z,1.83
2019-02-12T17:04:47.208Z,1.66
2019-02-12T17:09:54.906Z,1.55
2019-02-12T17:14:59.028Z,1.49
2019-02-12T17:20:03.226Z,1.27
2019-02-12T17:25:08.647Z,1.08
2019-02-12T17:30:16.950Z,0.86
2019-02-12T17:35:21.157Z,0.68
2019-02-12T17:40:25.215Z,0.68
2019-02-12T17:45:29.351Z,0.67
2019-02-12T17:50:33.512Z,0.62
2019-02-12T17:55:37.801Z,0.47
2019-02-12T18:00:41.969Z,0.32
2019-02-12T18:05:46.077Z,0.18
2019-02-12T18:10:55.718Z,-0.02
2019-02-12T18:16:00.641Z,-0.23
2019-02-12T18:21:05.037Z,-0.04
2019-02-12T18:26:09.340Z,0.02
2019-02-12T18:31:13.409Z,0.01
2019-02-12T18:36:17.519Z,-0.01
2019-02-12T18:41:21.515Z,-0.06
2019-02-12T18:46:26.751Z,-0.04
2019-02-12T18:51:31.154Z,-0.12
2019-02-12T18:56:41.438Z,-0.17
2019-02-12T19:01:41.010Z,-0.10
2019-02-12T19:06:47.229Z,-0.16
2019-02-12T19:11:54.308Z,-0.24
2019-02-12T19:16:57.037Z,-0.31
2019-02-12T19:22:01.126Z,-0.09
2019-02-12T19:27:05.169Z,-0.21
2019-02-12T19:32:09.326Z,-0.37
2019-02-12T19:37:13.437Z,-0.41
2019-02-12T19:42:17.666Z,-0.45
2019-02-12T19:47:21.879Z,-0.51
2019-02-12T19:52:26.764Z,-0.50
2019-02-12T19:57:30.779Z,-0.58
2019-02-12T20:02:39.245Z,-0.72
2019-02-12T20:07:44.187Z,-0.65
2019-02-12T20:12:48.293Z,-0.67
2019-02-12T20:17:53.040Z,-0.61
2019-02-12T20:22:57.172Z,-0.60
2019-02-12T20:28:01.338Z,-0.72
2019-02-12T20:33:05.711Z,-0.67
2019-02-12T20:38:10.843Z,-0.58
2019-02-12T20:43:15.491Z,-0.27
2019-02-12T20:48:20.063Z,-0.08
2019-02-12T20:53:24.222Z,0.06
2019-02-12T20:58:28.290Z,0.16
2019-02-12T21:03:32.444Z,0.24
2019-02-12T21:08:39.679Z,0.28
2019-02-12T21:13:48.496Z,0.22
2019-02-12T21:18:52.552Z,0.10
2019-02-12T21:24:00.565Z,-0.02
2019-02-12T21:29:05.507Z,-0.08
2019-02-12T21:34:09.761Z,-0.09
2019-02-12T21:39:14.363Z,0.12
2019-02-12T21:44:18.500Z,0.54
2019-02-12T21:49:22.676Z,0.77
2019-02-12T21:54:27.031Z,0.99
2019-02-12T21:59:31.105Z,1.20
2019-02-12T22:04:35.304Z,1.48
2019-02-12T22:09:39.824Z,1.63
2019-02-12T22:14:44.155Z,1.88
2019-02-12T22:19:48.220Z,2.11
2019-02-12T22:24:52.368Z,2.26
2019-02-12T22:29:56.452Z,2.16
2019-02-12T22:35:00.535Z,2.24
2019-02-12T22:40:05.251Z,2.31
2019-02-12T22:45:14.523Z,2.53
2019-02-12T22:50:19.754Z,2.85
2019-02-12T22:55:24.303Z,3.00
2019-02-12T23:00:34.715Z,3.05
2019-02-12T23:05:39.242Z,3.20
2019-02-12T23:10:43.463Z,3.22
2019-02-12T23:15:47.515Z,3.38
2019-02-12T23:20:52.221Z,3.44
2019-02-12T23:25:56.331Z,3.51
2019-02-12T23:31:00.547Z,3.46
2019-02-12T23:36:04.992Z,3.56
2019-02-12T23:41:09.425Z,3.60
2019-02-12T23:46:13.639Z,3.81
2019-02-12T23:51:17.807Z,3.71
2019-02-12T23:56:21.878Z,3.76
